Time;durP1;ratioP1;P1;durP2;ratioP2;P2;SDS_P1;SDS_P2;PMS_P1;PMS_P2;Temp;Humidity;BMP_temperature;BMP_pressure;BME280_temperature;BME280_humidity;BME280_pressure;Samples;Min_cycle;Max_cycle;Signal;HPM_P1;HPM_P2
2024/01/27 00:00:17;;;;;;;26.20;4.60;;;;;;;-145.18;100.00;46918.25;4994945;28;20399;-74
2024/01/27 00:02:43;;;;;;;17.77;5.20;;;;;;;-145.18;100.00;46914.34;4977343;28;20035;-70
2024/01/27 00:05:09;;;;;;;19.17;4.63;;;;;;;-145.18;100.00;46910.44;4995046;28;20034;-70
2024/01/27 00:07:34;;;;;;;24.47;3.40;;;;;;;-145.18;100.00;46908.47;4994641;28;20296;-70
2024/01/27 00:10:00;;;;;;;11.87;3.37;;;;;;;-145.18;100.00;46914.34;4995072;28;20030;-70
2024/01/27 00:12:25;;;;;;;12.80;3.40;;;;;;;-145.18;100.00;46910.44;4994532;28;20030;-70
2024/01/27 00:14:50;;;;;;;17.90;3.13;;;;;;;-145.18;100.00;46912.38;4994798;28;20022;-70
2024/01/27 00:17:16;;;;;;;23.67;8.30;;;;;;;-145.18;100.00;46914.34;4977027;28;20054;-70
2024/01/27 00:19:42;;;;;;;26.47;15.83;;;;;;;-145.18;100.00;46916.28;4977601;28;20398;-70
2024/01/27 00:22:07;;;;;;;18.57;6.10;;;;;;;-145.18;100.00;46916.28;4994400;28;20486;-70
2024/01/27 00:24:33;;;;;;;22.70;13.03;;;;;;;-145.18;100.00;46916.28;4994576;28;20074;-70
2024/01/27 00:27:00;;;;;;;24.43;13.17;;;;;;;-145.18;100.00;46924.09;4994477;28;20045;-70
2024/01/27 00:29:25;;;;;;;26.07;13.33;;;;;;;-145.18;100.00;46928.00;4995001;28;20030;-70
2024/01/27 00:31:50;;;;;;;26.27;12.70;;;;;;;-145.18;100.00;46926.06;4994507;28;20744;-70
2024/01/27 00:34:16;;;;;;;23.77;9.13;;;;;;;-145.18;100.00;46924.09;4993013;28;20034;-71
2024/01/27 00:36:48;;;;;;;22.70;5.27;;;;;;;-145.18;100.00;46926.06;4994036;28;20063;-70
2024/01/27 00:39:18;;;;;;;15.67;3.50;;;;;;;-145.18;100.00;46926.06;4993495;28;20469;-70
2024/01/27 00:41:43;;;;;;;15.40;3.23;;;;;;;-145.18;100.00;46929.97;4993950;28;20288;-70
2024/01/27 00:44:10;;;;;;;20.37;4.53;;;;;;;-145.18;100.00;46928.00;4994270;28;20318;-70
2024/01/27 00:46:38;;;;;;;19.00;6.30;;;;;;;-145.18;100.00;46926.06;4993934;28;20034;-70
2024/01/27 00:49:04;;;;;;;21.30;4.53;;;;;;;-145.18;100.00;46929.97;4994235;28;20276;-70
2024/01/27 00:51:30;;;;;;;9.80;3.40;;;;;;;-145.18;100.00;46924.09;4995448;28;20264;-71
2024/01/27 00:53:55;;;;;;;24.40;8.47;;;;;;;-145.18;100.00;46929.97;4994718;28;20029;-70
2024/01/27 00:56:20;;;;;;;32.00;16.83;;;;;;;-145.18;100.00;46926.06;4994001;28;20085;-70
2024/01/27 00:58:46;;;;;;;28.60;14.80;;;;;;;-145.18;100.00;46933.88;4992706;28;20141;-70
2024/01/27 01:01:11;;;;;;;31.43;5.17;;;;;;;-145.18;100.00;46937.78;4993197;28;20457;-70
2024/01/27 01:03:37;;;;;;;22.23;3.67;;;;;;;-145.18;100.00;46933.88;4992579;28;20137;-70
2024/01/27 01:06:03;;;;;;;22.83;6.07;;;;;;;-145.18;100.00;46935.81;4993698;28;20060;-70
2024/01/27 01:08:28;;;;;;;29.37;14.13;;;;;;;-145.18;100.00;46933.88;4976416;28;20030;-70
2024/01/27 01:10:54;;;;;;;20.43;6.53;;;;;;;-145.18;100.00;46937.78;4993781;28;20022;-70
2024/01/27 01:13:19;;;;;;;21.77;5.20;;;;;;;-145.18;100.00;46937.78;4993799;28;20038;-74
2024/01/27 01:15:44;;;;;;;29.30;11.03;;;;;;;-145.18;100.00;46939.72;4976010;28;20019;-75
2024/01/27 01:18:10;;;;;;;27.43;7.60;;;;;;;-145.18;100.00;46939.72;4997773;28;20031;-74
2024/01/27 01:20:35;;;;;;;24.17;6.20;;;;;;;-145.18;100.00;46937.78;4993534;28;20028;-75
2024/01/27 01:23:00;;;;;;;24.10;5.03;;;;;;;-145.18;100.00;46943.63;4993748;28;20034;-74
2024/01/27 01:25:26;;;;;;;27.23;9.20;;;;;;;-145.18;100.00;46943.63;4993400;28;20398;-74
2024/01/27 01:27:52;;;;;;;35.00;10.90;;;;;;;-145.18;100.00;46937.78;4992315;28;20037;-75
2024/01/27 01:30:17;;;;;;;13.70;4.13;;;;;;;-145.18;100.00;46941.69;4993323;28;20046;-75
2024/01/27 01:32:43;;;;;;;15.80;3.97;;;;;;;-145.18;100.00;46935.81;4993369;28;20105;-74
2024/01/27 01:35:10;;;;;;;13.57;4.13;;;;;;;-145.18;100.00;46937.78;4959566;28;20061;-74
2024/01/27 01:37:35;;;;;;;26.13;4.13;;;;;;;-145.18;100.00;46939.72;4993594;28;20053;-75
2024/01/27 01:40:02;;;;;;;20.00;3.77;;;;;;;-145.18;100.00;46937.78;4993186;28;20807;-75
2024/01/27 01:42:29;;;;;;;30.93;5.23;;;;;;;-145.18;100.00;46939.72;4993310;28;20022;-74
2024/01/27 01:44:55;;;;;;;16.33;3.63;;;;;;;-145.18;100.00;46931.91;4993003;28;20346;-74
2024/01/27 01:47:22;;;;;;;17.70;3.30;;;;;;;-145.18;100.00;46935.81;4993225;28;20268;-74
2024/01/27 01:49:47;;;;;;;16.57;3.97;;;;;;;-145.18;100.00;46935.81;4992874;28;20264;-75
2024/01/27 01:52:19;;;;;;;15.90;3.03;;;;;;;-145.18;100.00;46933.88;4993074;28;20782;-74
2024/01/27 01:54:49;;;;;;;20.33;4.00;;;;;;;-145.18;100.00;46931.91;4991911;28;20026;-74
2024/01/27 01:57:14;;;;;;;17.97;3.23;;;;;;;-145.18;100.00;46931.91;4993060;28;20264;-74
2024/01/27 01:59:40;;;;;;;14.87;3.40;;;;;;;-145.18;100.00;46935.81;4993049;28;20348;-74
2024/01/27 02:02:06;;;;;;;18.73;3.77;;;;;;;-145.18;100.00;46937.78;4993332;28;20053;-74
2024/01/27 02:04:48;;;;;;;18.50;4.47;;;;;;;-145.18;100.00;46939.72;4988397;28;20792;-74
2024/01/27 02:07:14;;;;;;;22.67;3.80;;;;;;;-145.18;100.00;46933.88;4965449;28;20031;-75
2024/01/27 02:09:39;;;;;;;20.87;5.47;;;;;;;-145.18;100.00;46939.72;4992718;28;20322;-74
2024/01/27 02:12:05;;;;;;;13.83;4.60;;;;;;;-145.18;100.00;46939.72;4972844;28;20069;-74
2024/01/27 02:14:31;;;;;;;16.03;3.43;;;;;;;-145.18;100.00;46937.78;4985280;28;20030;-74
2024/01/27 02:16:56;;;;;;;15.90;3.37;;;;;;;-145.18;100.00;46941.69;4991234;28;20334;-74
2024/01/27 02:19:22;;;;;;;13.70;3.57;;;;;;;-145.18;100.00;46937.78;4992461;28;20041;-74
2024/01/27 02:21:47;;;;;;;20.67;4.37;;;;;;;-145.18;100.00;46937.78;4958605;28;20518;-75
2024/01/27 02:24:13;;;;;;;21.23;4.40;;;;;;;-145.18;100.00;46939.72;4959069;28;20034;-74
2024/01/27 02:26:38;;;;;;;16.00;4.03;;;;;;;-145.18;100.00;46939.72;4992214;28;20030;-74
2024/01/27 02:29:04;;;;;;;18.80;7.03;;;;;;;-145.18;100.00;46945.59;4992399;28;20037;-74
2024/01/27 02:31:29;;;;;;;23.43;7.27;;;;;;;-145.18;100.00;46945.59;4991016;28;20520;-74
2024/01/27 02:33:54;;;;;;;25.73;7.03;;;;;;;-145.18;100.00;46949.50;4992332;28;20475;-74
2024/01/27 02:36:20;;;;;;;22.70;7.53;;;;;;;-145.18;100.00;46953.41;4992347;28;20051;-74
2024/01/27 02:38:45;;;;;;;22.13;8.87;;;;;;;-145.18;100.00;46957.31;4992077;28;20100;-74
2024/01/27 02:41:11;;;;;;;21.60;7.70;;;;;;;-145.18;100.00;46947.53;4975320;28;20073;-74
2024/01/27 02:43:37;;;;;;;15.80;6.37;;;;;;;-145.18;100.00;46949.50;4990512;28;20033;-74
2024/01/27 02:46:03;;;;;;;25.13;8.57;;;;;;;-145.18;100.00;46949.50;4975428;28;20272;-74
2024/01/27 02:48:29;;;;;;;23.03;7.83;;;;;;;-145.18;100.00;46949.50;4992255;28;20080;-75
2024/01/27 02:50:54;;;;;;;27.23;6.47;;;;;;;-145.18;100.00;46951.44;4974891;28;20272;-75
2024/01/27 02:53:20;;;;;;;24.37;7.33;;;;;;;-145.18;100.00;46953.41;4958484;28;20113;-74
2024/01/27 02:55:45;;;;;;;21.57;6.90;;;;;;;-145.18;100.00;46949.50;4991098;28;20118;-74
2024/01/27 02:58:10;;;;;;;21.97;7.43;;;;;;;-145.18;100.00;46949.50;4958704;28;20065;-74
2024/01/27 03:00:36;;;;;;;26.27;8.43;;;;;;;-145.18;100.00;46945.59;4992286;28;20394;-74
2024/01/27 03:03:01;;;;;;;26.63;7.67;;;;;;;-145.18;100.00;46949.50;4990443;28;20026;-74
2024/01/27 03:05:27;;;;;;;20.93;7.73;;;;;;;-145.18;100.00;46945.59;4992218;28;20442;-75
2024/01/27 03:07:52;;;;;;;28.77;7.83;;;;;;;-145.18;100.00;46943.63;4975113;28;20030;-74
2024/01/27 03:10:18;;;;;;;26.37;7.23;;;;;;;-145.18;100.00;46949.50;4994123;28;20037;-74
2024/01/27 03:12:43;;;;;;;30.43;9.20;;;;;;;-145.18;100.00;46943.63;4991921;28;20065;-74
2024/01/27 03:15:09;;;;;;;24.77;9.23;;;;;;;-145.18;100.00;46943.63;4974852;28;20538;-75
2024/01/27 03:17:34;;;;;;;21.87;8.20;;;;;;;-145.18;100.00;46945.59;4990453;28;20030;-74
2024/01/27 03:19:59;;;;;;;24.80;9.27;;;;;;;-145.18;100.00;46941.69;4990616;28;20117;-75
2024/01/27 03:22:25;;;;;;;18.90;7.80;;;;;;;-145.18;100.00;46943.63;4974611;28;20080;-74
2024/01/27 03:24:51;;;;;;;22.73;6.10;;;;;;;-145.18;100.00;46941.69;4995220;28;20031;-74
2024/01/27 03:27:17;;;;;;;21.50;6.87;;;;;;;-145.18;100.00;46937.78;4995450;28;20034;-74
2024/01/27 03:29:42;;;;;;;18.67;6.70;;;;;;;-145.18;100.00;46935.81;4978168;28;20773;-74
2024/01/27 03:32:07;;;;;;;20.77;7.73;;;;;;;-145.18;100.00;46933.88;4995745;28;20031;-75
2024/01/27 03:34:33;;;;;;;23.80;8.03;;;;;;;-145.18;100.00;46939.72;4994087;28;20486;-70
2024/01/27 03:36:58;;;;;;;26.10;7.57;;;;;;;-145.18;100.00;46933.88;4994243;28;20112;-70
2024/01/27 03:39:23;;;;;;;23.67;8.43;;;;;;;-145.18;100.00;46937.78;4995672;28;20173;-70
2024/01/27 03:41:49;;;;;;;31.37;8.53;;;;;;;-145.18;100.00;46935.81;4995030;28;20026;-70
2024/01/27 03:44:14;;;;;;;40.80;11.43;;;;;;;-145.18;100.00;46935.81;4977919;28;20036;-70
2024/01/27 03:46:40;;;;;;;27.50;10.10;;;;;;;-145.18;100.00;46939.72;4995058;28;20080;-70
2024/01/27 03:49:05;;;;;;;27.40;9.77;;;;;;;-145.18;100.00;46937.78;4977765;28;20035;-70
2024/01/27 03:51:31;;;;;;;25.60;11.40;;;;;;;-145.18;100.00;46939.72;4995402;28;20041;-70
2024/01/27 03:53:56;;;;;;;28.50;11.00;;;;;;;-145.18;100.00;46939.72;4994050;28;20018;-70
2024/01/27 03:56:21;;;;;;;24.07;10.70;;;;;;;-145.18;100.00;46937.78;4994873;28;20509;-70
2024/01/27 03:58:47;;;;;;;29.13;10.63;;;;;;;-145.18;100.00;46935.81;4995036;28;20049;-70
2024/01/27 04:01:12;;;;;;;21.93;9.73;;;;;;;-145.18;100.00;46933.88;4994821;28;20038;-70
2024/01/27 04:03:38;;;;;;;24.57;9.70;;;;;;;-145.18;100.00;46939.72;4995074;28;20433;-70
2024/01/27 04:06:03;;;;;;;29.63;10.53;;;;;;;-145.18;100.00;46937.78;4977477;28;20030;-70
2024/01/27 04:08:31;;;;;;;34.43;11.70;;;;;;;-145.18;100.00;46937.78;4994889;28;20624;-71
2024/01/27 04:10:57;;;;;;;33.33;11.67;;;;;;;-145.18;100.00;46939.72;4994674;28;20034;-70
2024/01/27 04:13:23;;;;;;;29.83;11.70;;;;;;;-145.18;100.00;46943.63;4994786;28;20755;-70
2024/01/27 04:15:51;;;;;;;35.43;11.03;;;;;;;-145.18;100.00;46937.78;4993209;28;20030;-70
2024/01/27 04:18:16;;;;;;;25.10;10.97;;;;;;;-145.18;100.00;46943.63;4992963;28;20026;-70
2024/01/27 04:20:41;;;;;;;39.87;10.70;;;;;;;-145.18;100.00;46937.78;4994542;28;20338;-70
2024/01/27 04:23:07;;;;;;;27.47;11.10;;;;;;;-145.18;100.00;46937.78;4994699;28;20030;-70
2024/01/27 04:25:32;;;;;;;36.90;10.57;;;;;;;-145.18;100.00;46933.88;4994469;28;20034;-71
2024/01/27 04:27:58;;;;;;;26.77;9.80;;;;;;;-145.18;100.00;46933.88;4994363;28;20041;-70
2024/01/27 04:30:23;;;;;;;28.30;10.57;;;;;;;-145.18;100.00;46933.88;4976577;28;20030;-70
2024/01/27 04:32:51;;;;;;;26.87;10.87;;;;;;;-145.18;100.00;46933.88;4976937;28;20534;-70
2024/01/27 04:35:17;;;;;;;35.80;11.30;;;;;;;-145.18;100.00;46935.81;4993182;28;20122;-70
2024/01/27 04:37:44;;;;;;;30.93;11.33;;;;;;;-145.18;100.00;46937.78;4994028;28;20343;-70
2024/01/27 04:40:10;;;;;;;29.17;10.57;;;;;;;-145.18;100.00;46937.78;4994071;28;20058;-70
2024/01/27 04:42:38;;;;;;;25.93;9.73;;;;;;;-145.18;100.00;46937.78;4993267;28;20822;-75
2024/01/27 04:45:04;;;;;;;29.47;10.03;;;;;;;-145.18;100.00;46937.78;4994203;28;20518;-75
2024/01/27 04:47:30;;;;;;;25.53;10.37;;;;;;;-145.18;100.00;46941.69;4976838;28;20268;-75
2024/01/27 04:49:57;;;;;;;29.47;11.13;;;;;;;-145.18;100.00;46933.88;4992893;28;20274;-75
2024/01/27 04:52:22;;;;;;;27.97;9.60;;;;;;;-145.18;100.00;46933.88;4977024;28;20038;-74
2024/01/27 04:54:47;;;;;;;32.13;10.80;;;;;;;-145.18;100.00;46933.88;4960462;28;20290;-75
2024/01/27 04:57:13;;;;;;;27.17;9.10;;;;;;;-145.18;100.00;46935.81;4994165;28;20031;-74
2024/01/27 04:59:38;;;;;;;29.97;10.13;;;;;;;-145.18;100.00;46933.88;4993838;28;20035;-74
2024/01/27 05:02:04;;;;;;;23.60;9.80;;;;;;;-145.18;100.00;46933.88;4993843;28;20027;-75
2024/01/27 05:04:29;;;;;;;30.47;10.27;;;;;;;-145.18;100.00;46935.81;4993354;28;20042;-75
2024/01/27 05:06:55;;;;;;;28.57;9.33;;;;;;;-145.18;100.00;46931.91;4976538;28;20037;-74
2024/01/27 05:09:21;;;;;;;28.27;10.47;;;;;;;-145.18;100.00;46935.81;4976262;28;20041;-75
2024/01/27 05:11:47;;;;;;;28.37;9.10;;;;;;;-145.18;100.00;46933.88;4976625;28;20308;-75
2024/01/27 05:14:13;;;;;;;22.88;8.65;;;;;;;-145.18;100.00;46929.97;4960653;28;20060;-74
2024/01/27 05:16:38;;;;;;;20.37;9.20;;;;;;;-145.18;100.00;46937.78;4992415;28;20435;-74
2024/01/27 05:19:04;;;;;;;34.73;9.63;;;;;;;-145.18;100.00;46935.81;4993329;28;20085;-75
2024/01/27 05:21:29;;;;;;;28.23;8.57;;;;;;;-145.18;100.00;46935.81;4960262;28;20026;-75
2024/01/27 05:23:55;;;;;;;32.40;10.03;;;;;;;-145.18;100.00;46937.78;4961014;28;20191;-75
2024/01/27 05:26:21;;;;;;;24.60;9.70;;;;;;;-145.18;100.00;46929.97;4994172;28;20509;-75
2024/01/27 05:28:46;;;;;;;31.53;8.83;;;;;;;-145.18;100.00;46937.78;4993154;28;20026;-75
2024/01/27 05:31:11;;;;;;;30.40;8.33;;;;;;;-145.18;100.00;46937.78;4992307;28;20276;-75
2024/01/27 05:33:39;;;;;;;25.90;8.67;;;;;;;-145.18;100.00;46937.78;4959486;28;20546;-75
2024/01/27 05:36:05;;;;;;;29.10;9.57;;;;;;;-145.18;100.00;46935.81;4991856;28;20171;-75
2024/01/27 05:38:31;;;;;;;25.87;8.83;;;;;;;-145.18;100.00;46939.72;4958821;28;20372;-75
2024/01/27 05:40:57;;;;;;;20.37;9.60;;;;;;;-145.18;100.00;46933.88;4976024;28;20034;-75
2024/01/27 05:43:22;;;;;;;23.43;8.87;;;;;;;-145.18;100.00;46937.78;4993232;28;20283;-75
2024/01/27 05:45:49;;;;;;;39.73;9.50;;;;;;;-145.18;100.00;46941.69;4992611;28;20030;-75
2024/01/27 05:48:14;;;;;;;25.90;9.57;;;;;;;-145.18;100.00;46947.53;4992865;28;20106;-77
2024/01/27 05:50:42;;;;;;;24.90;8.90;;;;;;;-145.18;100.00;46943.63;4991473;28;20628;-75
2024/01/27 05:53:07;;;;;;;30.07;9.57;;;;;;;-145.18;100.00;46941.69;4993260;28;20024;-77
2024/01/27 05:55:33;;;;;;;32.83;9.80;;;;;;;-145.18;100.00;46943.63;4992943;28;20260;-77
2024/01/27 05:57:59;;;;;;;26.37;9.47;;;;;;;-145.18;100.00;46945.59;4992999;28;20034;-76
2024/01/27 06:00:24;;;;;;;20.80;9.20;;;;;;;-145.18;100.00;46943.63;4992863;28;20264;-77
2024/01/27 06:02:50;;;;;;;34.17;9.87;;;;;;;-145.18;100.00;46945.59;4992432;28;20039;-76
2024/01/27 06:05:15;;;;;;;23.40;8.70;;;;;;;-145.18;100.00;46943.63;4992818;28;20026;-77
2024/01/27 06:07:42;;;;;;;26.03;8.97;;;;;;;-145.18;100.00;46949.50;4992827;28;20438;-77
2024/01/27 06:10:08;;;;;;;26.02;9.40;;;;;;;-145.18;100.00;46945.59;4991571;28;20057;-77
2024/01/27 06:12:35;;;;;;;27.35;10.70;;;;;;;-145.18;100.00;46949.50;4992260;28;20026;-77
2024/01/27 06:15:00;;;;;;;31.77;9.50;;;;;;;-145.18;100.00;46947.53;4992879;28;20031;-77
2024/01/27 06:17:25;;;;;;;31.20;10.67;;;;;;;-145.18;100.00;46949.50;4975202;28;20438;-77
2024/01/27 06:19:51;;;;;;;32.30;10.53;;;;;;;-145.18;100.00;46943.63;4975078;28;20030;-77
2024/01/27 06:22:16;;;;;;;26.33;10.90;;;;;;;-145.18;100.00;46947.53;4992341;28;20058;-77
2024/01/27 06:24:45;;;;;;;30.47;10.73;;;;;;;-145.18;100.00;46945.59;4992289;28;20038;-77
2024/01/27 06:27:11;;;;;;;32.15;10.80;;;;;;;-145.18;100.00;46947.53;4992541;28;20109;-77
2024/01/27 06:29:36;;;;;;;28.67;10.40;;;;;;;-145.18;100.00;46945.59;4975294;28;20026;-76
2024/01/27 06:32:02;;;;;;;27.47;10.90;;;;;;;-145.18;100.00;46947.53;4991655;28;20093;-76
2024/01/27 06:34:28;;;;;;;31.07;11.20;;;;;;;-145.18;100.00;46947.53;4991319;28;20026;-77
2024/01/27 06:36:54;;;;;;;30.10;11.63;;;;;;;-145.18;100.00;46943.63;4987801;28;20065;-77
2024/01/27 06:39:21;;;;;;;28.50;11.40;;;;;;;-145.18;100.00;46951.44;4990696;28;20034;-77
2024/01/27 06:41:47;;;;;;;31.52;11.10;;;;;;;-145.18;100.00;46949.50;4973019;28;20026;-77
2024/01/27 06:44:12;;;;;;;25.63;10.17;;;;;;;-145.18;100.00;46941.69;4990111;28;20085;-77
2024/01/27 06:46:38;;;;;;;27.70;11.07;;;;;;;-145.18;100.00;46945.59;4989060;28;20050;-75
2024/01/27 06:49:03;;;;;;;34.90;10.40;;;;;;;-145.18;100.00;46943.63;4983765;28;20057;-77
2024/01/27 06:51:29;;;;;;;25.23;10.03;;;;;;;-145.18;100.00;46943.63;4972683;28;20096;-77
2024/01/27 06:53:54;;;;;;;25.50;10.30;;;;;;;-145.18;100.00;46947.53;4990430;28;20050;-77
2024/01/27 06:56:19;;;;;;;27.03;9.90;;;;;;;-145.18;100.00;46945.59;4989113;28;20049;-77
2024/01/27 06:58:45;;;;;;;23.90;10.50;;;;;;;-145.18;100.00;46945.59;4992144;28;20027;-77
2024/01/27 07:01:10;;;;;;;27.47;10.40;;;;;;;-145.18;100.00;46945.59;4991929;28;20068;-77
2024/01/27 07:03:35;;;;;;;32.67;10.67;;;;;;;-145.18;100.00;46943.63;4993427;28;20113;-72
2024/01/27 07:06:01;;;;;;;28.77;11.17;;;;;;;-145.18;100.00;46947.53;4993839;28;20026;-72
2024/01/27 07:08:27;;;;;;;24.30;9.63;;;;;;;-145.18;100.00;46943.63;4991291;28;20034;-71
2024/01/27 07:10:52;;;;;;;37.93;11.40;;;;;;;-145.18;100.00;46943.63;4991671;28;20507;-71
2024/01/27 07:13:17;;;;;;;26.80;9.53;;;;;;;-145.18;100.00;46937.78;4994275;28;20030;-72
2024/01/27 07:15:43;;;;;;;28.23;10.60;;;;;;;-145.18;100.00;46947.53;4978205;28;20038;-72
2024/01/27 07:18:09;;;;;;;21.83;10.03;;;;;;;-145.18;100.00;46943.63;4995893;28;20042;-72
2024/01/27 07:20:35;;;;;;;29.23;10.13;;;;;;;-145.18;100.00;46941.69;4995585;28;20069;-72
2024/01/27 07:23:00;;;;;;;27.85;10.48;;;;;;;-145.18;100.00;46941.69;4978710;28;20043;-70
2024/01/27 07:25:28;;;;;;;32.60;10.43;;;;;;;-145.18;100.00;46943.63;4978134;28;20556;-70
2024/01/27 07:27:55;;;;;;;25.75;9.98;;;;;;;-145.18;100.00;46941.69;4996099;28;20030;-70
2024/01/27 07:30:20;;;;;;;29.40;10.15;;;;;;;-145.18;100.00;46943.63;4995270;28;20030;-70
2024/01/27 07:32:46;;;;;;;26.57;10.87;;;;;;;-145.18;100.00;46941.69;4995582;28;20026;-71
2024/01/27 07:35:11;;;;;;;31.53;9.60;;;;;;;-145.18;100.00;46941.69;4978110;28;20054;-73
2024/01/27 07:37:36;;;;;;;34.33;11.13;;;;;;;-145.18;100.00;46939.72;4995459;28;20026;-72
2024/01/27 07:40:02;;;;;;;23.50;11.67;;;;;;;-145.18;100.00;46941.69;4995393;28;20030;-72
2024/01/27 07:42:27;;;;;;;27.17;11.03;;;;;;;-145.18;100.00;46935.81;4996538;28;20048;-70
2024/01/27 07:44:53;;;;;;;33.90;11.13;;;;;;;-145.18;100.00;46935.81;4996831;28;20529;-70
2024/01/27 07:47:18;;;;;;;28.50;10.83;;;;;;;-145.18;100.00;46929.97;4993088;28;20101;-70
2024/01/27 07:49:44;;;;;;;23.43;10.57;;;;;;;-145.18;100.00;46937.78;4984403;28;20132;-70
2024/01/27 07:52:10;;;;;;;32.13;10.57;;;;;;;-145.18;100.00;46929.97;4979473;28;20042;-70
2024/01/27 07:54:40;;;;;;;25.83;10.10;;;;;;;-145.18;100.00;46931.91;4991700;28;20540;-71
2024/01/27 07:57:06;;;;;;;28.90;11.50;;;;;;;-145.18;100.00;46926.06;4995295;28;20030;-71
2024/01/27 07:59:31;;;;;;;28.70;11.07;;;;;;;-145.18;100.00;46926.06;4977186;28;20271;-71
2024/01/27 08:01:56;;;;;;;31.27;10.57;;;;;;;-145.18;100.00;46928.00;4990099;28;20717;-71
2024/01/27 08:04:22;;;;;;;37.23;13.20;;;;;;;-145.18;100.00;46922.16;4983299;28;20043;-71
2024/01/27 08:06:49;;;;;;;33.47;11.43;;;;;;;-145.18;100.00;46922.16;4988135;28;20069;-71
2024/01/27 08:09:15;;;;;;;31.67;13.83;;;;;;;-145.18;100.00;46924.09;4978516;28;20042;-70
2024/01/27 08:11:41;;;;;;;28.75;12.43;;;;;;;-145.18;100.00;46924.09;4978503;28;20280;-71
2024/01/27 08:14:06;;;;;;;27.40;12.73;;;;;;;-145.18;100.00;46918.25;4975222;28;20034;-76
2024/01/27 08:16:32;;;;;;;32.63;12.43;;;;;;;-145.18;100.00;46920.19;4984438;28;20466;-76
2024/01/27 08:18:57;;;;;;;49.30;13.93;;;;;;;-145.18;100.00;46916.28;4972712;28;20034;-76
2024/01/27 08:21:22;;;;;;;34.83;14.17;;;;;;;-145.18;100.00;46918.25;4964777;28;20044;-75
2024/01/27 08:23:48;;;;;;;41.63;15.07;;;;;;;-145.18;100.00;46918.25;4980134;28;20034;-75
2024/01/27 08:26:14;;;;;;;34.47;13.93;;;;;;;-145.18;100.00;46916.28;4970463;28;20422;-75
2024/01/27 08:28:39;;;;;;;29.73;13.60;;;;;;;-145.18;100.00;46920.19;4968498;28;20105;-75
2024/01/27 08:31:04;;;;;;;40.60;14.33;;;;;;;-145.18;100.00;46914.34;4986893;28;20474;-75
2024/01/27 08:33:30;;;;;;;27.77;12.90;;;;;;;-145.18;100.00;46922.16;4960465;28;20830;-75
2024/01/27 08:35:56;;;;;;;32.93;13.63;;;;;;;-145.18;100.00;46918.25;4990986;28;20042;-74
2024/01/27 08:38:21;;;;;;;36.43;14.97;;;;;;;-145.18;100.00;46916.28;4990211;28;20105;-75
2024/01/27 08:40:46;;;;;;;35.93;14.30;;;;;;;-145.18;100.00;46912.38;4971443;28;20591;-75
2024/01/27 08:43:12;;;;;;;42.57;15.33;;;;;;;-145.18;100.00;46920.19;4969947;28;20046;-75
2024/01/27 08:45:38;;;;;;;37.37;15.20;;;;;;;-145.18;100.00;46914.34;4983498;28;20049;-75
2024/01/27 08:48:04;;;;;;;34.53;13.93;;;;;;;-145.18;100.00;46916.28;4988347;28;20034;-75
2024/01/27 08:50:30;;;;;;;34.60;15.20;;;;;;;-145.18;100.00;46916.28;4973872;28;20288;-75
2024/01/27 08:52:55;;;;;;;40.97;14.43;;;;;;;-145.18;100.00;46914.34;4986425;28;20604;-75
2024/01/27 08:55:23;;;;;;;42.10;14.73;;;;;;;-145.18;100.00;46916.28;4983231;28;20026;-75
2024/01/27 08:57:49;;;;;;;35.70;15.47;;;;;;;-145.18;100.00;46914.34;4987872;28;20065;-75
2024/01/27 09:00:16;;;;;;;38.27;16.67;;;;;;;-145.18;100.00;46914.34;4986479;28;20331;-75
2024/01/27 09:02:44;;;;;;;38.10;15.63;;;;;;;-145.18;100.00;46912.38;4983592;28;20029;-75
2024/01/27 09:05:11;;;;;;;32.20;15.50;;;;;;;-145.18;100.00;46912.38;4971159;28;20279;-75
2024/01/27 09:07:37;;;;;;;43.00;16.63;;;;;;;-145.18;100.00;46914.34;4986600;28;20358;-75
2024/01/27 09:10:03;;;;;;;41.27;18.03;;;;;;;-145.18;100.00;46914.34;4987864;28;20288;-75
2024/01/27 09:12:28;;;;;;;41.87;16.63;;;;;;;-145.18;100.00;46910.44;4986191;28;20019;-75
2024/01/27 09:14:54;;;;;;;35.30;17.93;;;;;;;-145.18;100.00;46910.44;4985326;28;20084;-75
2024/01/27 09:17:22;;;;;;;40.17;16.67;;;;;;;-145.18;100.00;46910.44;4986408;28;20061;-75
2024/01/27 09:19:48;;;;;;;45.60;18.00;;;;;;;-145.18;100.00;46914.34;4988093;28;20503;-75
2024/01/27 09:22:13;;;;;;;37.13;17.23;;;;;;;-145.18;100.00;46908.47;4991417;28;20331;-74
2024/01/27 09:24:39;;;;;;;43.07;17.97;;;;;;;-145.18;100.00;46914.34;4986360;28;20030;-75
2024/01/27 09:27:05;;;;;;;38.87;18.13;;;;;;;-145.18;100.00;46912.38;4985775;28;20026;-75
2024/01/27 09:29:30;;;;;;;40.63;18.10;;;;;;;-145.18;100.00;46914.34;4987820;28;20645;-75
2024/01/27 09:31:56;;;;;;;43.03;18.70;;;;;;;-145.18;100.00;46910.44;4984171;28;20047;-75
2024/01/27 09:34:21;;;;;;;39.57;17.90;;;;;;;-145.18;100.00;46912.38;4986215;28;20057;-76
2024/01/27 09:36:46;;;;;;;40.73;18.10;;;;;;;-145.18;100.00;46912.38;4969285;28;20034;-76
2024/01/27 09:39:12;;;;;;;46.23;19.23;;;;;;;-145.18;100.00;46908.47;4975999;28;20095;-76
2024/01/27 09:41:38;;;;;;;35.83;18.83;;;;;;;-145.18;100.00;46908.47;4992841;28;20041;-75
2024/01/27 09:44:04;;;;;;;40.13;19.20;;;;;;;-145.18;100.00;46910.44;4975410;28;20058;-76
2024/01/27 09:46:31;;;;;;;45.70;18.50;;;;;;;-145.18;100.00;46906.53;4994681;28;20026;-76
2024/01/27 09:48:57;;;;;;;40.27;19.40;;;;;;;-145.18;100.00;46908.47;4990037;28;20311;-76
2024/01/27 09:51:22;;;;;;;34.43;18.03;;;;;;;-145.18;100.00;46908.47;4990155;28;20280;-77
2024/01/27 09:53:51;;;;;;;78.27;20.83;;;;;;;-145.18;100.00;46906.53;4990340;28;20085;-76
2024/01/27 09:56:18;;;;;;;47.40;18.67;;;;;;;-145.18;100.00;46912.38;4993136;28;20046;-77
2024/01/27 09:58:45;;;;;;;38.37;17.60;;;;;;;-145.18;100.00;46918.25;4992802;28;20681;-78
2024/01/27 10:01:11;;;;;;;38.57;16.77;;;;;;;-145.18;100.00;46924.09;4993857;28;20627;-78
2024/01/27 10:03:40;;;;;;;39.67;17.10;;;;;;;-145.18;100.00;46918.25;4993873;28;20271;-77
2024/01/27 10:06:08;;;;;;;39.73;17.57;;;;;;;-145.18;100.00;46918.25;4991751;28;20279;-77
2024/01/27 10:08:33;;;;;;;40.73;15.97;;;;;;;-145.18;100.00;46914.34;4992212;28;20375;-77
2024/01/27 10:10:59;;;;;;;39.03;18.73;;;;;;;-145.18;100.00;46914.34;4992461;28;20296;-77
2024/01/27 10:13:27;;;;;;;43.57;17.27;;;;;;;-145.18;100.00;46906.53;4991391;28;20030;-77
2024/01/27 10:16:07;;;;;;;40.43;17.47;;;;;;;-145.18;100.00;46902.63;4992722;28;20026;-77
2024/01/27 10:18:33;;;;;;;41.07;18.60;;;;;;;-145.18;100.00;46902.63;4992775;28;20327;-77
2024/01/27 10:20:59;;;;;;;39.60;16.97;;;;;;;-145.18;100.00;46892.84;4986657;28;20279;-77
2024/01/27 10:23:24;;;;;;;34.83;16.23;;;;;;;-145.18;100.00;46892.84;4988886;28;20370;-77
2024/01/27 10:25:52;;;;;;;38.93;16.30;;;;;;;-145.18;100.00;46894.81;4991851;28;20883;-77
2024/01/27 10:28:18;;;;;;;33.20;15.57;;;;;;;-145.18;100.00;46890.91;5000192;28;20065;-77
2024/01/27 10:30:44;;;;;;;36.73;15.87;;;;;;;-145.18;100.00;46879.19;4988144;28;20296;-76
2024/01/27 10:33:13;;;;;;;38.93;14.73;;;;;;;-145.18;100.00;46877.22;4996145;28;20038;-76
2024/01/27 10:35:39;;;;;;;31.20;14.63;;;;;;;-145.18;100.00;46877.22;4991542;28;20295;-77
2024/01/27 10:38:04;;;;;;;31.53;14.70;;;;;;;-145.18;100.00;46873.31;4991127;28;20806;-77
2024/01/27 10:40:30;;;;;;;37.37;14.77;;;;;;;-145.18;100.00;46873.31;4990923;28;20291;-76
2024/01/27 10:43:07;;;;;;;26.07;13.80;;;;;;;-145.18;100.00;46867.44;4969152;28;20046;-76
2024/01/27 10:45:40;;;;;;;33.23;14.23;;;;;;;-145.18;100.00;46865.50;4985114;28;20029;-76
2024/01/27 10:48:09;;;;;;;41.43;15.07;;;;;;;-145.18;100.00;46867.44;4988783;28;20314;-77
2024/01/27 10:50:37;;;;;;;29.27;14.00;;;;;;;-145.18;100.00;46861.59;4987363;28;20267;-76